createdAt,value
2018-12-05T00:05:59.345Z,14.77
2018-12-05T00:12:02.920Z,14.27
2018-12-05T00:18:06.340Z,15.20
2018-12-05T00:24:10.097Z,15.57
2018-12-05T00:30:13.541Z,16.77
2018-12-05T00:36:16.981Z,17.50
2018-12-05T00:42:20.429Z,18.43
2018-12-05T00:48:23.862Z,18.57
2018-12-05T00:54:27.302Z,17.87
2018-12-05T01:00:30.974Z,34.87
2018-12-05T01:06:34.598Z,25.20
2018-12-05T01:12:38.068Z,22.53
2018-12-05T01:18:41.614Z,44.17
2018-12-05T01:24:45.048Z,16.90
2018-12-05T01:30:48.522Z,24.80
2018-12-05T01:36:51.982Z,16.13
2018-12-05T01:42:55.500Z,16.40
2018-12-05T01:48:59.000Z,14.85
2018-12-05T01:55:02.962Z,14.60
2018-12-05T02:01:06.464Z,14.23
2018-12-05T02:07:09.928Z,13.70
2018-12-05T02:13:13.370Z,13.60
2018-12-05T02:19:16.957Z,13.87
2018-12-05T02:25:20.596Z,12.80
2018-12-05T02:31:24.171Z,12.60
2018-12-05T02:37:27.696Z,12.57
2018-12-05T02:43:31.112Z,12.63
2018-12-05T02:49:34.568Z,12.60
2018-12-05T02:55:37.983Z,12.13
2018-12-05T03:01:41.451Z,12.17
2018-12-05T03:07:45.006Z,12.70
2018-12-05T03:13:49.287Z,12.00
2018-12-05T03:19:52.881Z,11.93
2018-12-05T03:25:56.337Z,11.77
2018-12-05T03:31:59.759Z,12.30
2018-12-05T03:38:03.231Z,12.17
2018-12-05T03:44:06.630Z,12.03
2018-12-05T03:50:10.103Z,12.63
2018-12-05T03:56:13.525Z,12.67
2018-12-05T04:02:17.527Z,13.33
2018-12-05T04:08:24.066Z,11.50
2018-12-05T04:14:28.822Z,11.60
2018-12-05T04:20:32.289Z,11.60
2018-12-05T04:26:35.730Z,11.90
2018-12-05T04:32:39.171Z,12.43
2018-12-05T04:38:42.609Z,12.37
2018-12-05T04:44:46.179Z,12.65
2018-12-05T04:50:49.726Z,13.43
2018-12-05T04:56:53.544Z,12.97
2018-12-05T05:02:56.961Z,14.13
2018-12-05T05:09:00.383Z,14.97
2018-12-05T05:15:04.271Z,36.00
2018-12-05T05:21:07.723Z,16.63
2018-12-05T05:27:11.964Z,18.27
2018-12-05T05:33:15.772Z,15.40
2018-12-05T05:39:19.215Z,15.30
2018-12-05T05:45:22.661Z,14.70
2018-12-05T05:51:26.660Z,15.33
2018-12-05T05:57:30.154Z,15.63
2018-12-05T06:03:33.884Z,16.33
2018-12-05T06:09:37.322Z,15.30
2018-12-05T06:15:40.788Z,15.70
2018-12-05T06:21:44.251Z,18.43
2018-12-05T06:27:47.715Z,18.97
2018-12-05T06:33:51.132Z,17.70
2018-12-05T06:39:54.950Z,17.40
2018-12-05T06:45:58.414Z,16.53
2018-12-05T06:52:01.872Z,21.27
2018-12-05T06:58:05.540Z,17.20
2018-12-05T07:04:09.209Z,18.07
2018-12-05T07:10:12.896Z,15.43
2018-12-05T07:16:17.332Z,13.07
2018-12-05T07:22:20.804Z,17.57
2018-12-05T07:28:24.580Z,15.83
2018-12-05T07:34:28.235Z,16.60
2018-12-05T07:40:31.713Z,17.00
2018-12-05T07:46:35.155Z,12.90
2018-12-05T07:52:38.652Z,15.32
2018-12-05T07:58:42.201Z,13.45
2018-12-05T08:04:45.617Z,12.50
2018-12-05T08:10:49.139Z,12.43
2018-12-05T08:16:52.585Z,11.97
2018-12-05T08:22:56.042Z,10.58
2018-12-05T08:28:59.508Z,11.15
2018-12-05T08:35:03.040Z,12.00
2018-12-05T08:41:06.549Z,11.90
2018-12-05T08:47:10.828Z,12.47
2018-12-05T08:53:14.316Z,12.55
2018-12-05T08:59:17.783Z,10.55
2018-12-05T09:05:21.194Z,10.05
2018-12-05T09:11:24.652Z,9.80
2018-12-05T09:17:28.108Z,10.72
2018-12-05T09:23:32.314Z,11.10
2018-12-05T09:29:35.775Z,10.53
2018-12-05T09:35:39.231Z,8.78
2018-12-05T09:41:42.735Z,5.20
2018-12-05T09:47:46.219Z,9.68
2018-12-05T09:53:49.627Z,8.20
2018-12-05T09:59:53.137Z,7.22
2018-12-05T10:05:56.589Z,7.80
2018-12-05T10:12:00.005Z,6.47
2018-12-05T10:18:03.533Z,8.75
2018-12-05T10:24:07.165Z,8.80
2018-12-05T10:30:10.826Z,8.63
2018-12-05T10:36:14.309Z,5.47
2018-12-05T10:42:17.768Z,14.87
2018-12-05T10:48:21.232Z,5.00
2018-12-05T10:54:24.677Z,11.50
2018-12-05T11:00:40.276Z,8.48
2018-12-05T11:06:49.880Z,8.13
2018-12-05T11:12:58.659Z,5.20
2018-12-05T11:19:07.583Z,5.80
2018-12-05T11:25:16.361Z,8.30
2018-12-05T11:31:20.173Z,5.00
2018-12-05T11:37:23.745Z,6.62
2018-12-05T11:43:27.391Z,7.10
2018-12-05T11:49:30.959Z,6.33
2018-12-05T11:55:34.431Z,7.75
2018-12-05T12:01:37.885Z,6.25
2018-12-05T12:07:41.332Z,4.00
2018-12-05T12:13:44.807Z,5.80
2018-12-05T12:19:48.334Z,5.25
2018-12-05T12:25:51.785Z,3.80
2018-12-05T12:31:55.237Z,6.55
2018-12-05T12:37:58.681Z,6.70
2018-12-05T12:44:02.424Z,7.53
2018-12-05T12:50:06.554Z,4.42
2018-12-05T12:56:10.049Z,5.60
2018-12-05T13:02:13.502Z,5.30
2018-12-05T13:08:17.630Z,6.12
2018-12-05T13:14:21.098Z,5.53
2018-12-05T13:20:24.587Z,3.72
2018-12-05T13:26:28.170Z,4.62
2018-12-05T13:32:31.635Z,3.70
2018-12-05T13:38:35.144Z,4.17
2018-12-05T13:44:38.591Z,4.05
2018-12-05T13:50:42.185Z,3.35
2018-12-05T13:56:45.617Z,4.92
2018-12-05T14:02:49.076Z,5.90
2018-12-05T14:08:52.512Z,4.70
2018-12-05T14:14:56.260Z,4.55
2018-12-05T14:21:00.079Z,3.58
2018-12-05T14:27:03.495Z,3.95
2018-12-05T14:33:07.001Z,5.47
2018-12-05T14:39:10.440Z,4.50
2018-12-05T14:45:13.873Z,4.95
2018-12-05T14:51:17.313Z,4.37
2018-12-05T14:57:21.280Z,5.15
2018-12-05T15:03:24.904Z,5.62
2018-12-05T15:09:29.007Z,4.72
2018-12-05T15:15:32.428Z,5.67
2018-12-05T15:21:35.965Z,4.97
2018-12-05T15:27:39.563Z,4.12
2018-12-05T15:33:43.162Z,6.20
2018-12-05T15:39:46.746Z,5.40
2018-12-05T15:45:50.176Z,4.65
2018-12-05T15:51:53.650Z,4.87
2018-12-05T15:57:57.170Z,6.22
2018-12-05T16:04:00.630Z,3.87
2018-12-05T16:10:05.664Z,4.90
2018-12-05T16:16:09.189Z,6.25
2018-12-05T16:22:12.628Z,15.83
2018-12-05T16:28:16.100Z,31.52
2018-12-05T16:34:19.606Z,15.13
2018-12-05T16:40:23.073Z,7.60
2018-12-05T16:46:26.597Z,4.37
2018-12-05T16:52:30.098Z,5.78
2018-12-05T17:03:05.310Z,5.30
2018-12-05T17:09:12.588Z,4.33
2018-12-05T17:15:16.101Z,5.93
2018-12-05T17:21:19.600Z,4.60
2018-12-05T17:27:23.236Z,5.75
2018-12-05T17:33:26.723Z,4.03
2018-12-05T17:39:30.167Z,5.17
2018-12-05T17:45:33.744Z,7.28
2018-12-05T17:51:37.232Z,6.20
2018-12-05T17:57:40.692Z,6.20
2018-12-05T18:03:44.154Z,5.97
2018-12-05T18:09:47.564Z,5.25
2018-12-05T18:15:51.005Z,5.80
2018-12-05T18:21:54.500Z,6.75
2018-12-05T18:27:57.968Z,7.25
2018-12-05T18:34:01.487Z,7.70
2018-12-05T18:40:05.377Z,6.47
2018-12-05T18:46:15.687Z,7.10
2018-12-05T18:52:19.333Z,6.65
2018-12-05T18:58:22.873Z,6.83
2018-12-05T19:04:26.346Z,8.43
2018-12-05T19:10:30.206Z,6.95
2018-12-05T19:16:33.706Z,9.28
2018-12-05T19:22:37.311Z,4.62
2018-12-05T19:28:41.008Z,6.85
2018-12-05T19:34:44.434Z,7.60
2018-12-05T19:40:47.942Z,6.15
2018-12-05T19:46:51.392Z,6.10
2018-12-05T19:52:54.822Z,5.78
2018-12-05T19:58:58.312Z,8.20
2018-12-05T20:05:01.803Z,7.47
2018-12-05T20:11:05.383Z,9.20
2018-12-05T20:17:09.086Z,5.25
2018-12-05T20:23:12.512Z,5.53
2018-12-05T20:29:16.010Z,7.60
2018-12-05T20:35:19.476Z,5.40
2018-12-05T20:41:23.193Z,7.08
2018-12-05T20:47:26.861Z,6.60
2018-12-05T20:53:30.436Z,7.08
2018-12-05T20:59:33.917Z,5.75
2018-12-05T21:05:37.545Z,10.80
2018-12-05T21:11:41.002Z,14.25
2018-12-05T21:17:44.492Z,10.78
2018-12-05T21:23:47.982Z,7.42
2018-12-05T21:29:51.431Z,4.78
2018-12-05T21:35:54.910Z,7.15
2018-12-05T21:41:58.684Z,7.08
2018-12-05T21:48:02.142Z,7.65
2018-12-05T21:54:05.859Z,5.28
2018-12-05T22:00:11.763Z,8.43
2018-12-05T22:06:15.745Z,5.45
2018-12-05T22:12:19.277Z,8.13
2018-12-05T22:18:22.737Z,8.63
2018-12-05T22:24:26.577Z,5.03
2018-12-05T22:30:30.079Z,6.40
2018-12-05T22:36:33.543Z,6.33
2018-12-05T22:42:38.672Z,7.12
2018-12-05T22:48:42.240Z,6.90
2018-12-05T22:54:45.709Z,9.45
2018-12-05T23:00:51.986Z,8.43
2018-12-05T23:06:55.502Z,7.80
2018-12-05T23:12:59.605Z,8.10
2018-12-05T23:19:03.186Z,9.03
2018-12-05T23:25:06.912Z,9.65
2018-12-05T23:31:10.412Z,9.15
2018-12-05T23:37:13.916Z,8.95
2018-12-05T23:43:17.432Z,9.08
2018-12-05T23:49:21.210Z,10.15
2018-12-05T23:55:24.901Z,6.53
